Charleston, WV

8:13 AM EDT on July 04, 2015 (GMT -0400)
Edgewood | | Change Station
CLOSE
Current Station
Personal Weather Station
Location: Charleston, WV
Elevation: 807 ft
Nearby Weather Stations

Elev 807 ft 38.37 °N, 81.64 °W | Updated 15 seconds ago

Light Rain
Light Rain Mist
68.7 °F
Feels Like 68.7 °F
N
0.0
Wind Variable Wind from WNW
Gusts 0.0 mph

Today
High -- | Low -- °F
--% Chance of Precip.
Yesterday
High -- | Low -- °F
Precip. -- in
6:07 AM 8:53 PM
Waning Gibbous, 92% visible
Pressure 29.92 in
Visibility 4.0 miles
Clouds Scattered Clouds 100 ft
Mostly Cloudy 700 ft
Overcast 2200 ft
Dew Point 68 °F
Humidity 98%
Rainfall 0.27 in
Snow Depth Not available.
UV 1.0 out of 12
Pollen .50 out of 12
Air Quality Not available.
Flu Activity Not available.
METAR KCRW 041154Z 31004KT 4SM -RA BR SCT001 BKN007CB OVC022 20/18 A2994 RMK AO2 TSE28 SLP132 TS DSIPTD CB E-SE MOV E VLY FG P0013 60032 70083 T02000183 10211 20200 53017

More Conditions Fewer Conditions

Pressure 29.92 in
Visibility 4.0 miles
Clouds Scattered Clouds 100 ft
Mostly Cloudy 700 ft
Overcast 2200 ft
Dew Point 68 °F
Humidity 98%
Rainfall 0.27 in
Snow Depth Not available.
UV 1.0 out of 12
Pollen .50 out of 12
Air Quality Not available.
Flu Activity Not available.
METAR KCRW 041154Z 31004KT 4SM -RA BR SCT001 BKN007CB OVC022 20/18 A2994 RMK AO2 TSE28 SLP132 TS DSIPTD CB E-SE MOV E VLY FG P0013 60032 70083 T02000183 10211 20200 53017

More Conditions Fewer Conditions

10-Day Weather Forecast

×

Almanac

Astronomy

Jul. 04, 2015 Rise Set
Actual Time
Civil Twilight
Nautical Twilight
Astronomical Twilight
Moon
Length of Visible Light
Length of Day
Tomorrow will be .
, % of the Moon is Illuminated

Today's Extremes

State Highs State Lows

Community

WunderPhotos

Upload Photos

1,834,946 photos uploaded!

WunderBlogs® & News

Nearby

Air Quality

  Air Quality AQ Index Pollutant
Not available.

Snow Depth

Station Depth Elevation

Earthquake Activity

City Distance Mag. Time & Date
Minimum magnitude displayed is 2.5.

Coastal Water Temperatures

Place Temperature

Stations

Nearby Weather Stations

Station Location Temp. Windchill Dew Point Humidity Wind Precip. Elev Updated Type